createdAt,value
2019-03-11T00:03:48.545Z,95570.00
2019-03-11T00:06:36.305Z,95583.00
2019-03-11T00:09:24.587Z,95580.00
2019-03-11T00:12:12.563Z,95572.00
2019-03-11T00:15:00.532Z,95565.00
2019-03-11T00:17:48.617Z,95578.00
2019-03-11T00:20:37.222Z,95576.00
2019-03-11T00:23:25.236Z,95592.00
2019-03-11T00:26:13.026Z,95597.00
2019-03-11T00:29:01.451Z,95587.00
2019-03-11T00:31:49.375Z,95587.00
2019-03-11T00:34:37.512Z,95598.00
2019-03-11T00:37:25.539Z,95596.00
2019-03-11T00:40:14.158Z,95604.00
2019-03-11T00:43:02.703Z,95607.00
2019-03-11T00:45:50.673Z,95607.00
2019-03-11T00:48:39.008Z,95607.00
2019-03-11T00:51:27.368Z,95607.00
2019-03-11T00:54:15.480Z,95593.00
2019-03-11T00:57:03.326Z,95607.00
2019-03-11T00:59:51.371Z,95595.00
2019-03-11T01:02:39.628Z,95591.00
2019-03-11T01:05:27.896Z,95597.00
2019-03-11T01:08:16.260Z,95588.00
2019-03-11T01:11:04.146Z,95591.00
2019-03-11T01:13:52.299Z,95599.00
2019-03-11T01:16:40.436Z,95608.00
2019-03-11T01:19:28.465Z,95627.00
2019-03-11T01:22:16.360Z,95624.00
2019-03-11T01:25:05.122Z,95625.00
2019-03-11T01:27:53.428Z,95623.00
2019-03-11T01:30:41.860Z,95624.00
2019-03-11T01:33:30.318Z,95617.00
2019-03-11T01:36:18.313Z,95613.00
2019-03-11T01:39:06.283Z,95610.00
2019-03-11T01:41:54.957Z,95606.00
2019-03-11T01:44:43.118Z,95605.00
2019-03-11T01:47:31.048Z,95606.00
2019-03-11T01:50:19.694Z,95590.00
2019-03-11T01:53:07.920Z,95588.00
2019-03-11T01:55:56.166Z,95584.00
2019-03-11T01:58:44.506Z,95570.00
2019-03-11T02:01:32.770Z,95572.00
2019-03-11T02:04:20.730Z,95579.00
2019-03-11T02:07:09.061Z,95568.00
2019-03-11T02:09:57.037Z,95564.00
2019-03-11T02:12:45.762Z,95559.00
2019-03-11T02:15:33.878Z,95564.00
2019-03-11T02:18:22.219Z,95567.00
2019-03-11T02:21:10.626Z,95564.00
2019-03-11T02:23:58.946Z,95576.00
2019-03-11T02:26:47.003Z,95555.00
2019-03-11T02:29:34.680Z,95565.00
2019-03-11T02:32:22.730Z,95545.00
2019-03-11T02:35:10.917Z,95537.00
2019-03-11T02:37:58.995Z,95532.00
2019-03-11T02:40:46.979Z,95537.00
2019-03-11T02:43:35.359Z,95533.00
2019-03-11T02:46:23.649Z,95524.00
2019-03-11T02:49:11.324Z,95524.00
2019-03-11T02:51:59.851Z,95538.00
2019-03-11T02:54:48.506Z,95525.00
2019-03-11T02:57:36.655Z,95527.00
2019-03-11T03:00:24.805Z,95533.00
2019-03-11T03:06:29.612Z,95533.00
2019-03-11T03:09:18.311Z,95527.00
2019-03-11T03:12:06.279Z,95529.00
2019-03-11T03:14:54.224Z,95530.00
2019-03-11T03:17:42.180Z,95522.00
2019-03-11T03:20:30.137Z,95517.00
2019-03-11T03:23:18.279Z,95519.00
2019-03-11T03:26:06.566Z,95520.00
2019-03-11T03:28:54.810Z,95521.00
2019-03-11T03:31:42.775Z,95529.00
2019-03-11T03:34:30.850Z,95515.00
2019-03-11T03:37:18.873Z,95522.00
2019-03-11T03:40:07.071Z,95520.00
2019-03-11T03:42:55.341Z,95507.00
2019-03-11T03:45:44.091Z,95518.00
2019-03-11T03:48:32.259Z,95512.00
2019-03-11T03:51:20.403Z,95512.00
2019-03-11T03:54:08.933Z,95506.00
2019-03-11T03:56:56.967Z,95501.00
2019-03-11T03:59:45.137Z,95502.00
2019-03-11T04:02:33.464Z,95496.00
2019-03-11T04:05:22.088Z,95497.00
2019-03-11T04:08:10.193Z,95496.00
2019-03-11T04:10:58.379Z,95496.00
2019-03-11T04:13:46.508Z,95493.00
2019-03-11T04:16:34.432Z,95486.00
2019-03-11T04:19:22.442Z,95481.00
2019-03-11T04:22:11.126Z,95479.00
2019-03-11T04:24:59.207Z,95467.00
2019-03-11T04:27:46.966Z,95473.00
2019-03-11T04:30:35.545Z,95459.00
2019-03-11T04:33:24.064Z,95460.00
2019-03-11T04:36:12.253Z,95459.00
2019-03-11T04:39:00.269Z,95448.00
2019-03-11T04:41:48.223Z,95444.00
2019-03-11T04:44:36.191Z,95431.00
2019-03-11T04:47:24.657Z,95426.00
2019-03-11T04:50:12.569Z,95427.00
2019-03-11T04:53:00.736Z,95417.00
2019-03-11T04:55:48.571Z,95420.00
2019-03-11T04:58:36.915Z,95420.00
2019-03-11T05:01:24.923Z,95421.00
2019-03-11T05:04:13.410Z,95415.00
2019-03-11T05:07:02.178Z,95426.00
2019-03-11T05:09:50.408Z,95413.00
2019-03-11T05:12:38.581Z,95432.00
2019-03-11T05:15:26.528Z,95425.00
2019-03-11T05:18:14.795Z,95406.00
2019-03-11T05:21:03.179Z,95391.00
2019-03-11T05:23:51.701Z,95401.00
2019-03-11T05:26:39.919Z,95390.00
2019-03-11T05:29:28.007Z,95393.00
2019-03-11T05:32:16.118Z,95394.00
2019-03-11T05:35:04.820Z,95392.00
2019-03-11T05:37:53.714Z,95381.00
2019-03-11T05:40:41.780Z,95381.00
2019-03-11T05:43:29.760Z,95379.00
2019-03-11T05:46:17.869Z,95375.00
2019-03-11T05:51:52.083Z,95351.00
2019-03-11T05:54:40.235Z,95355.00
2019-03-11T05:57:28.180Z,95354.00
2019-03-11T06:00:17.894Z,95342.00
2019-03-11T06:03:06.283Z,95333.00
2019-03-11T06:05:54.282Z,95324.00
2019-03-11T06:08:42.345Z,95334.00
2019-03-11T06:13:54.849Z,95315.00
2019-03-11T06:16:25.654Z,95312.00
2019-03-11T06:18:56.717Z,95306.00
2019-03-11T06:21:35.569Z,95316.00
2019-03-11T06:24:06.023Z,95310.00
2019-03-11T06:26:36.410Z,95322.00
2019-03-11T06:29:06.848Z,95317.00
2019-03-11T06:31:37.287Z,95338.00
2019-03-11T06:34:07.748Z,95317.00
2019-03-11T06:36:38.120Z,95315.00
2019-03-11T06:39:09.364Z,95339.00
2019-03-11T06:41:39.686Z,95350.00
2019-03-11T06:44:10.094Z,95352.00
2019-03-11T06:46:41.119Z,95345.00
2019-03-11T06:49:11.478Z,95357.00
2019-03-11T06:51:42.259Z,95346.00
2019-03-11T06:54:12.592Z,95344.00
2019-03-11T06:56:42.926Z,95345.00
2019-03-11T06:59:13.599Z,95346.00
2019-03-11T07:01:44.164Z,95359.00
2019-03-11T07:04:14.584Z,95360.00
2019-03-11T07:06:45.238Z,95363.00
2019-03-11T07:09:16.017Z,95376.00
2019-03-11T07:11:46.703Z,95375.00
2019-03-11T07:14:17.386Z,95391.00
2019-03-11T07:16:47.794Z,95397.00
2019-03-11T07:19:18.641Z,95410.00
2019-03-11T07:21:49.228Z,95411.00
2019-03-11T07:24:19.540Z,95408.00
2019-03-11T07:26:49.902Z,95426.00
2019-03-11T07:29:20.254Z,95422.00
2019-03-11T07:31:50.646Z,95426.00
2019-03-11T07:34:21.004Z,95423.00
2019-03-11T07:36:51.395Z,95448.00
2019-03-11T07:39:21.729Z,95453.00
2019-03-11T07:41:52.120Z,95454.00
2019-03-11T07:44:22.511Z,95477.00
2019-03-11T07:46:52.900Z,95461.00
2019-03-11T07:49:23.245Z,95478.00
2019-03-11T07:51:53.569Z,95450.00
2019-03-11T07:54:23.958Z,95451.00
2019-03-11T07:56:54.319Z,95461.00
2019-03-11T07:59:24.746Z,95463.00
2019-03-11T08:01:55.155Z,95447.00
2019-03-11T08:04:25.528Z,95475.00
2019-03-11T08:06:55.889Z,95468.00
2019-03-11T08:09:37.404Z,95479.00
2019-03-11T08:11:58.373Z,95473.00
2019-03-11T08:14:28.777Z,95452.00
2019-03-11T08:16:59.154Z,95469.00
2019-03-11T08:19:29.527Z,95473.00
2019-03-11T08:21:59.936Z,95460.00
2019-03-11T08:24:30.253Z,95450.00
2019-03-11T08:27:00.619Z,95471.00
2019-03-11T08:29:30.998Z,95464.00
2019-03-11T08:32:01.352Z,95447.00
2019-03-11T08:34:31.714Z,95464.00
2019-03-11T08:37:02.101Z,95435.00
2019-03-11T08:39:32.454Z,95460.00
2019-03-11T08:42:02.823Z,95472.00
2019-03-11T08:44:33.217Z,95448.00
2019-03-11T08:47:03.599Z,95444.00
2019-03-11T08:49:33.949Z,95445.00
2019-03-11T08:52:05.482Z,95434.00
2019-03-11T08:54:36.062Z,95447.00
2019-03-11T08:57:06.431Z,95432.00
2019-03-11T08:59:36.790Z,95438.00
2019-03-11T09:02:07.114Z,95446.00
2019-03-11T09:04:37.465Z,95449.00
2019-03-11T09:07:07.829Z,95460.00
2019-03-11T09:09:38.201Z,95433.00
2019-03-11T09:12:08.627Z,95427.00
2019-03-11T09:14:39.005Z,95435.00
2019-03-11T09:17:09.427Z,95418.00
2019-03-11T09:19:39.795Z,95410.00
2019-03-11T09:22:10.157Z,95416.00
2019-03-11T09:24:40.525Z,95430.00
2019-03-11T09:27:10.913Z,95442.00
2019-03-11T09:29:41.269Z,95447.00
2019-03-11T09:32:11.593Z,95448.00
2019-03-11T09:34:41.985Z,95454.00
2019-03-11T09:37:12.363Z,95465.00
2019-03-11T09:39:42.804Z,95465.00
2019-03-11T09:42:13.057Z,95449.00
2019-03-11T09:44:43.581Z,95451.00
2019-03-11T09:47:13.908Z,95444.00
2019-03-11T09:49:44.311Z,95463.00
2019-03-11T09:52:14.598Z,95474.00
2019-03-11T09:54:44.996Z,95476.00
2019-03-11T09:57:15.323Z,95490.00
2019-03-11T09:59:45.716Z,95492.00
2019-03-11T10:02:16.063Z,95501.00
2019-03-11T10:04:46.427Z,95520.00
2019-03-11T10:07:16.797Z,95541.00
2019-03-11T10:09:47.138Z,95540.00
2019-03-11T10:12:17.489Z,95536.00
2019-03-11T10:14:47.887Z,95538.00
2019-03-11T10:17:18.280Z,95542.00
2019-03-11T10:19:49.405Z,95552.00
2019-03-11T10:22:19.882Z,95563.00
2019-03-11T10:24:50.219Z,95563.00
2019-03-11T10:27:20.566Z,95571.00
2019-03-11T10:29:50.901Z,95576.00
2019-03-11T10:32:21.273Z,95576.00
2019-03-11T10:34:51.637Z,95585.00
2019-03-11T10:37:21.987Z,95594.00
2019-03-11T10:39:52.314Z,95598.00
2019-03-11T10:42:22.700Z,95603.00
2019-03-11T10:44:53.042Z,95604.00
2019-03-11T10:47:23.442Z,95604.00
2019-03-11T10:49:53.755Z,95616.00
2019-03-11T10:52:24.101Z,95618.00
2019-03-11T10:54:54.491Z,95612.00
2019-03-11T10:57:24.801Z,95607.00
2019-03-11T10:59:55.189Z,95611.00
2019-03-11T11:02:25.543Z,95609.00
2019-03-11T11:04:55.933Z,95603.00
2019-03-11T11:07:26.315Z,95616.00
2019-03-11T11:09:56.757Z,95620.00
2019-03-11T11:12:27.098Z,95622.00
2019-03-11T11:14:57.444Z,95621.00
2019-03-11T11:17:27.869Z,95612.00
2019-03-11T11:20:03.324Z,95608.00
2019-03-11T11:22:30.349Z,95582.00
2019-03-11T11:25:00.708Z,95577.00
2019-03-11T11:27:31.106Z,95596.00
2019-03-11T11:30:01.445Z,95604.00
2019-03-11T11:32:31.867Z,95610.00
2019-03-11T11:35:02.207Z,95605.00
2019-03-11T11:37:32.516Z,95605.00
2019-03-11T11:40:02.887Z,95589.00
2019-03-11T11:42:33.245Z,95598.00
2019-03-11T11:45:03.574Z,95601.00
2019-03-11T11:47:33.916Z,95590.00
2019-03-11T11:50:05.091Z,95598.00
2019-03-11T11:52:35.509Z,95589.00
2019-03-11T11:55:06.684Z,95590.00
2019-03-11T11:57:37.016Z,95580.00
2019-03-11T12:00:11.346Z,95563.00
2019-03-11T12:02:42.263Z,95577.00
2019-03-11T12:05:13.612Z,95545.00
2019-03-11T12:07:44.275Z,95557.00
2019-03-11T12:10:17.359Z,95551.00
2019-03-11T12:12:48.176Z,95549.00
2019-03-11T12:15:18.555Z,95541.00
2019-03-11T12:17:49.865Z,95543.00
2019-03-11T12:20:22.648Z,95539.00
2019-03-11T12:22:53.138Z,95555.00
2019-03-11T12:25:23.514Z,95553.00
2019-03-11T12:27:54.897Z,95549.00
2019-03-11T12:30:27.153Z,95560.00
2019-03-11T12:32:57.720Z,95546.00
2019-03-11T12:35:28.731Z,95546.00
2019-03-11T12:37:59.358Z,95543.00
2019-03-11T12:40:32.130Z,95542.00
2019-03-11T12:43:02.719Z,95554.00
2019-03-11T12:45:33.097Z,95536.00
2019-03-11T12:48:03.800Z,95526.00
2019-03-11T12:50:34.407Z,95529.00
2019-03-11T12:53:04.909Z,95506.00
2019-03-11T12:55:35.692Z,95509.00
2019-03-11T12:58:06.262Z,95506.00
2019-03-11T13:00:36.892Z,95512.00
2019-03-11T13:03:07.332Z,95504.00
2019-03-11T13:05:37.708Z,95511.00
2019-03-11T13:08:08.582Z,95510.00
2019-03-11T13:10:39.163Z,95510.00
2019-03-11T13:13:09.623Z,95520.00
2019-03-11T13:15:39.995Z,95501.00
2019-03-11T13:18:37.413Z,95516.00
2019-03-11T13:21:29.582Z,95507.00
2019-03-11T13:23:59.984Z,95511.00
2019-03-11T13:26:30.465Z,95513.00
2019-03-11T13:29:00.889Z,95504.00
2019-03-11T13:31:31.909Z,95513.00
2019-03-11T13:34:02.256Z,95515.00
2019-03-11T13:36:32.799Z,95519.00
2019-03-11T13:39:04.516Z,95517.00
2019-03-11T13:41:34.902Z,95511.00
2019-03-11T13:44:05.261Z,95499.00
2019-03-11T13:46:35.658Z,95509.00
2019-03-11T13:49:09.325Z,95516.00
2019-03-11T13:51:39.722Z,95514.00
2019-03-11T13:54:10.110Z,95529.00
2019-03-11T13:56:40.469Z,95530.00
2019-03-11T13:59:10.860Z,95536.00
2019-03-11T14:01:41.431Z,95539.00
2019-03-11T14:04:11.819Z,95553.00
2019-03-11T14:06:42.149Z,95552.00
2019-03-11T14:09:12.595Z,95547.00
2019-03-11T14:11:42.959Z,95564.00
2019-03-11T14:14:13.300Z,95557.00
2019-03-11T14:16:43.776Z,95553.00
2019-03-11T14:19:15.789Z,95588.00
2019-03-11T14:21:46.131Z,95588.00
2019-03-11T14:24:16.545Z,95584.00
2019-03-11T14:26:46.907Z,95591.00
2019-03-11T14:29:17.252Z,95600.00
2019-03-11T14:31:47.646Z,95599.00
2019-03-11T14:34:18.192Z,95639.00
2019-03-11T14:36:48.633Z,95609.00
2019-03-11T14:39:18.993Z,95614.00
2019-03-11T14:41:49.353Z,95614.00
2019-03-11T14:44:19.712Z,95618.00
2019-03-11T14:46:50.107Z,95619.00
2019-03-11T14:49:20.459Z,95603.00
2019-03-11T14:51:50.827Z,95623.00
2019-03-11T14:54:21.145Z,95625.00
2019-03-11T14:56:51.481Z,95619.00
2019-03-11T14:59:22.667Z,95617.00
2019-03-11T15:01:53.367Z,95621.00
2019-03-11T15:04:23.992Z,95627.00
2019-03-11T15:06:54.589Z,95632.00
2019-03-11T15:09:25.497Z,95624.00
2019-03-11T15:11:56.087Z,95629.00
2019-03-11T15:14:26.479Z,95638.00
2019-03-11T15:16:56.972Z,95632.00
2019-03-11T15:19:27.349Z,95630.00
2019-03-11T15:21:57.749Z,95622.00
2019-03-11T15:24:28.168Z,95639.00
2019-03-11T15:26:58.556Z,95632.00
2019-03-11T15:29:28.898Z,95640.00
2019-03-11T15:31:59.272Z,95647.00
2019-03-11T15:34:29.612Z,95675.00
2019-03-11T15:37:00.389Z,95659.00
2019-03-11T15:39:30.717Z,95688.00
2019-03-11T15:42:01.074Z,95693.00
2019-03-11T15:44:31.511Z,95682.00
2019-03-11T15:47:01.909Z,95695.00
2019-03-11T15:49:32.284Z,95704.00
2019-03-11T15:52:02.640Z,95698.00
2019-03-11T15:54:32.999Z,95706.00
2019-03-11T15:57:03.373Z,95709.00
2019-03-11T15:59:33.855Z,95685.00
2019-03-11T16:02:04.179Z,95682.00
2019-03-11T16:04:34.568Z,95687.00
2019-03-11T16:07:04.911Z,95683.00
2019-03-11T16:09:35.291Z,95695.00
2019-03-11T16:12:05.626Z,95693.00
2019-03-11T16:14:36.013Z,95700.00
2019-03-11T16:17:06.501Z,95707.00
2019-03-11T16:19:37.347Z,95705.00
2019-03-11T16:22:07.886Z,95715.00
2019-03-11T16:24:38.255Z,95740.00
2019-03-11T16:27:08.632Z,95742.00
2019-03-11T16:29:39.011Z,95757.00
2019-03-11T16:32:11.904Z,95743.00
2019-03-11T16:34:41.468Z,95754.00
2019-03-11T16:37:13.542Z,95764.00
2019-03-11T16:39:43.915Z,95756.00
2019-03-11T16:42:18.773Z,95766.00
2019-03-11T16:44:49.162Z,95754.00
2019-03-11T16:47:19.544Z,95765.00
2019-03-11T16:49:49.944Z,95761.00
2019-03-11T16:52:20.301Z,95766.00
2019-03-11T16:54:50.640Z,95773.00
2019-03-11T16:57:20.992Z,95774.00
2019-03-11T16:59:51.406Z,95768.00
2019-03-11T17:02:22.446Z,95759.00
2019-03-11T17:04:52.846Z,95775.00
2019-03-11T17:07:23.251Z,95791.00
2019-03-11T17:09:53.634Z,95775.00
2019-03-11T17:12:24.094Z,95779.00
2019-03-11T17:14:54.454Z,95792.00
2019-03-11T17:17:24.834Z,95797.00
2019-03-11T17:19:55.211Z,95803.00
2019-03-11T17:22:25.635Z,95810.00
2019-03-11T17:24:55.994Z,95800.00
2019-03-11T17:27:26.523Z,95803.00
2019-03-11T17:29:56.875Z,95813.00
2019-03-11T17:32:27.227Z,95816.00
2019-03-11T17:34:57.594Z,95812.00
2019-03-11T17:37:27.989Z,95815.00
2019-03-11T17:39:58.362Z,95835.00
2019-03-11T17:42:28.900Z,95837.00
2019-03-11T17:44:59.197Z,95827.00
2019-03-11T17:47:29.589Z,95838.00
2019-03-11T17:49:59.974Z,95834.00
2019-03-11T17:52:30.411Z,95840.00
2019-03-11T17:55:01.427Z,95849.00
2019-03-11T17:57:31.814Z,95854.00
2019-03-11T18:00:02.695Z,95856.00
2019-03-11T18:02:33.221Z,95856.00
2019-03-11T18:05:03.945Z,95864.00
2019-03-11T18:07:34.577Z,95864.00
2019-03-11T18:10:06.829Z,95861.00
2019-03-11T18:12:37.382Z,95875.00
2019-03-11T18:15:08.479Z,95868.00
2019-03-11T18:17:39.163Z,95873.00
2019-03-11T18:20:10.792Z,95880.00
2019-03-11T18:22:41.275Z,95900.00
2019-03-11T18:25:13.790Z,95881.00
2019-03-11T18:27:44.143Z,95880.00
2019-03-11T18:30:18.607Z,95879.00
2019-03-11T18:32:49.468Z,95883.00
2019-03-11T18:35:19.959Z,95892.00
2019-03-11T18:37:50.507Z,95889.00
2019-03-11T18:40:20.936Z,95896.00
2019-03-11T18:42:51.823Z,95908.00
2019-03-11T18:45:22.477Z,95895.00
2019-03-11T18:47:53.288Z,95893.00
2019-03-11T18:50:24.141Z,95898.00
2019-03-11T18:52:54.628Z,95894.00
2019-03-11T18:55:35.531Z,95908.00
2019-03-11T18:58:06.230Z,95902.00
2019-03-11T19:00:36.603Z,95916.00
2019-03-11T19:03:17.632Z,95912.00
2019-03-11T19:05:48.314Z,95903.00
2019-03-11T19:08:18.681Z,95911.00
2019-03-11T19:10:49.634Z,95914.00
2019-03-11T19:13:20.057Z,95933.00
2019-03-11T19:15:50.461Z,95929.00
2019-03-11T19:18:22.814Z,95922.00
2019-03-11T19:20:53.249Z,95922.00
2019-03-11T19:23:24.153Z,95930.00
2019-03-11T19:25:57.042Z,95923.00
2019-03-11T19:28:28.087Z,95918.00
2019-03-11T19:30:58.581Z,95924.00
2019-03-11T19:33:29.035Z,95928.00
2019-03-11T19:35:59.468Z,95928.00
2019-03-11T19:38:32.631Z,95932.00
2019-03-11T19:41:03.446Z,95922.00
2019-03-11T19:43:34.137Z,95944.00
2019-03-11T19:46:04.572Z,95920.00
2019-03-11T19:48:35.521Z,95935.00
2019-03-11T19:51:05.977Z,95915.00
2019-03-11T19:53:36.645Z,95928.00
2019-03-11T19:56:07.284Z,95923.00
2019-03-11T19:58:37.792Z,95925.00
2019-03-11T20:01:08.305Z,95927.00
2019-03-11T20:03:38.900Z,95927.00
2019-03-11T20:06:09.277Z,95930.00
2019-03-11T20:08:47.129Z,95923.00
2019-03-11T20:11:17.976Z,95916.00
2019-03-11T20:13:48.389Z,95925.00
2019-03-11T20:16:22.150Z,95920.00
2019-03-11T20:18:52.798Z,95939.00
2019-03-11T20:21:23.913Z,95924.00
2019-03-11T20:23:54.498Z,95925.00
2019-03-11T20:26:25.060Z,95930.00
2019-03-11T20:28:55.718Z,95936.00
2019-03-11T20:31:26.239Z,95920.00
2019-03-11T20:33:56.874Z,95931.00
2019-03-11T20:36:27.378Z,95934.00
2019-03-11T20:38:57.976Z,95929.00
2019-03-11T20:41:28.536Z,95930.00
2019-03-11T20:43:59.270Z,95913.00
2019-03-11T20:46:29.752Z,95923.00
2019-03-11T20:49:00.248Z,95927.00
2019-03-11T20:51:30.708Z,95928.00
2019-03-11T20:54:01.261Z,95935.00
2019-03-11T20:56:31.770Z,95924.00
2019-03-11T20:59:02.328Z,95931.00
2019-03-11T21:01:32.764Z,95943.00
2019-03-11T21:04:03.212Z,95929.00
2019-03-11T21:06:33.736Z,95938.00
2019-03-11T21:09:05.714Z,95939.00
2019-03-11T21:11:36.179Z,95957.00
2019-03-11T21:14:08.758Z,95935.00
2019-03-11T21:16:38.761Z,95958.00
2019-03-11T21:19:09.226Z,95957.00
2019-03-11T21:21:39.707Z,95967.00
2019-03-11T21:24:10.072Z,95952.00
2019-03-11T21:26:40.492Z,95954.00
2019-03-11T21:29:10.864Z,95958.00
2019-03-11T21:31:41.260Z,95978.00
2019-03-11T21:34:11.654Z,95963.00
2019-03-11T21:36:42.096Z,95963.00
2019-03-11T21:39:12.593Z,95952.00
2019-03-11T21:41:43.064Z,95957.00
2019-03-11T21:44:13.474Z,95962.00
2019-03-11T21:46:43.963Z,95960.00
2019-03-11T21:49:14.413Z,95946.00
2019-03-11T21:51:44.789Z,95951.00
2019-03-11T21:54:15.122Z,95960.00
2019-03-11T21:56:45.577Z,95942.00
2019-03-11T21:59:15.992Z,95952.00
2019-03-11T22:01:46.556Z,95942.00
2019-03-11T22:04:16.884Z,95953.00
2019-03-11T22:06:47.215Z,95946.00
2019-03-11T22:09:17.673Z,95947.00
2019-03-11T22:11:48.093Z,95951.00
2019-03-11T22:14:18.456Z,95955.00
2019-03-11T22:16:48.937Z,95958.00
2019-03-11T22:19:19.281Z,95956.00
2019-03-11T22:21:49.731Z,95964.00
2019-03-11T22:24:20.099Z,95952.00
2019-03-11T22:26:50.479Z,95967.00
2019-03-11T22:29:20.924Z,95960.00
2019-03-11T22:31:51.260Z,95958.00
2019-03-11T22:34:21.633Z,95960.00
2019-03-11T22:36:51.999Z,95966.00
2019-03-11T22:39:22.386Z,95948.00
2019-03-11T22:41:53.018Z,95958.00
2019-03-11T22:44:23.683Z,95956.00
2019-03-11T22:46:54.002Z,95970.00
2019-03-11T22:49:24.389Z,95960.00
2019-03-11T22:51:54.722Z,95953.00
2019-03-11T22:54:25.111Z,95954.00
2019-03-11T22:56:55.445Z,95945.00
2019-03-11T22:59:25.766Z,95953.00
2019-03-11T23:01:56.087Z,95955.00
2019-03-11T23:04:26.587Z,95951.00
2019-03-11T23:06:56.941Z,95960.00
2019-03-11T23:09:27.340Z,95972.00
2019-03-11T23:11:57.702Z,95948.00
2019-03-11T23:14:28.075Z,95967.00
2019-03-11T23:16:58.374Z,95955.00
2019-03-11T23:19:28.739Z,95956.00
2019-03-11T23:21:59.116Z,95942.00
2019-03-11T23:24:29.455Z,95949.00
2019-03-11T23:26:59.809Z,95963.00
2019-03-11T23:29:30.145Z,95951.00
2019-03-11T23:32:00.533Z,95965.00
2019-03-11T23:34:30.855Z,95961.00
2019-03-11T23:37:01.260Z,95970.00
2019-03-11T23:39:31.643Z,95961.00
2019-03-11T23:42:02.021Z,95957.00
2019-03-11T23:44:32.424Z,95958.00
2019-03-11T23:47:02.827Z,95960.00
2019-03-11T23:49:33.214Z,95958.00
2019-03-11T23:52:03.645Z,95960.00
2019-03-11T23:54:35.751Z,95972.00
2019-03-11T23:57:06.105Z,95972.00
2019-03-11T23:59:36.502Z,95966.00
